createdAt,value
2023-04-02T00:00:52.636Z,2.80
2023-04-02T00:01:52.677Z,3.40
2023-04-02T00:02:52.680Z,2.60
2023-04-02T00:03:52.706Z,2.00
2023-04-02T00:04:52.580Z,2.30
2023-04-02T00:05:52.606Z,1.90
2023-04-02T00:06:52.558Z,1.80
2023-04-02T00:07:52.595Z,1.60
2023-04-02T00:08:52.584Z,1.80
2023-04-02T00:09:52.549Z,1.50
2023-04-02T00:10:52.583Z,1.50
2023-04-02T00:11:52.519Z,1.60
2023-04-02T00:12:52.512Z,1.30
2023-04-02T00:13:52.523Z,1.40
2023-04-02T00:14:52.494Z,1.10
2023-04-02T00:15:52.503Z,1.30
2023-04-02T00:16:52.549Z,1.40
2023-04-02T00:17:52.508Z,1.30
2023-04-02T00:18:52.445Z,1.30
2023-04-02T00:19:52.476Z,1.20
2023-04-02T00:20:52.462Z,1.10
2023-04-02T00:21:52.445Z,1.00
2023-04-02T00:22:52.422Z,1.10
2023-04-02T00:23:52.393Z,1.40
2023-04-02T00:24:52.385Z,1.40
2023-04-02T00:25:52.366Z,1.50
2023-04-02T00:26:52.373Z,1.60
2023-04-02T00:27:52.342Z,1.60
2023-04-02T00:28:52.362Z,1.40
2023-04-02T00:29:52.303Z,1.50
2023-04-02T00:30:52.297Z,1.70
2023-04-02T00:31:52.313Z,1.70
2023-04-02T00:32:52.333Z,1.90
2023-04-02T00:33:52.279Z,2.40
2023-04-02T00:34:52.257Z,2.50
2023-04-02T00:35:52.315Z,2.20
2023-04-02T00:36:52.231Z,2.40
2023-04-02T00:37:52.206Z,2.10
2023-04-02T00:38:52.243Z,2.80
2023-04-02T00:39:52.184Z,2.50
2023-04-02T00:40:52.186Z,2.50
2023-04-02T00:41:52.186Z,2.70
2023-04-02T00:42:52.195Z,2.30
2023-04-02T00:43:52.161Z,2.50
2023-04-02T00:44:52.136Z,1.90
2023-04-02T00:45:52.164Z,2.10
2023-04-02T00:46:52.113Z,1.70
2023-04-02T00:47:52.216Z,1.60
2023-04-02T00:48:52.139Z,1.60
2023-04-02T00:49:52.086Z,1.50
2023-04-02T00:50:52.067Z,1.50
2023-04-02T00:51:52.077Z,1.40
2023-04-02T00:52:52.068Z,1.60
2023-04-02T00:53:52.112Z,1.70
2023-04-02T00:54:52.024Z,1.90
2023-04-02T00:55:52.018Z,1.70
2023-04-02T00:56:52.044Z,1.70
2023-04-02T00:57:51.999Z,1.70
2023-04-02T00:58:52.017Z,1.70
2023-04-02T00:59:51.995Z,1.70
2023-04-02T01:00:51.986Z,1.80
2023-04-02T01:01:51.995Z,1.50
2023-04-02T01:02:52.076Z,1.70
2023-04-02T01:03:51.974Z,1.60
2023-04-02T01:04:51.915Z,1.70
2023-04-02T01:05:51.931Z,1.60
2023-04-02T01:06:51.891Z,1.70
2023-04-02T01:07:51.882Z,1.30
2023-04-02T01:08:51.911Z,1.40
2023-04-02T01:09:51.857Z,1.80
2023-04-02T01:10:51.855Z,1.80
2023-04-02T01:11:51.879Z,2.20
2023-04-02T01:12:51.827Z,2.10
2023-04-02T01:13:51.829Z,2.50
2023-04-02T01:14:51.857Z,2.40
2023-04-02T01:15:51.820Z,2.60
2023-04-02T01:16:51.810Z,2.20
2023-04-02T01:17:51.791Z,2.50
2023-04-02T01:18:51.812Z,2.30
2023-04-02T01:19:51.762Z,2.20
2023-04-02T01:20:51.775Z,2.40
2023-04-02T01:21:51.732Z,2.30
2023-04-02T01:22:51.718Z,2.30
2023-04-02T01:23:51.731Z,2.50
2023-04-02T01:24:51.707Z,2.60
2023-04-02T01:25:51.676Z,2.50
2023-04-02T01:26:51.680Z,2.30
2023-04-02T01:27:51.679Z,2.10
2023-04-02T01:28:51.675Z,2.50
2023-04-02T01:29:51.668Z,2.10
2023-04-02T01:30:51.642Z,2.20
2023-04-02T01:31:51.629Z,2.40
2023-04-02T01:32:51.619Z,2.20
2023-04-02T01:33:51.616Z,2.20
2023-04-02T01:34:51.572Z,2.10
2023-04-02T01:35:51.592Z,2.00
2023-04-02T01:36:51.554Z,2.10
2023-04-02T01:37:51.552Z,2.10
2023-04-02T01:38:51.567Z,1.80
2023-04-02T01:39:51.548Z,2.10
2023-04-02T01:40:51.545Z,1.80
2023-04-02T01:41:51.510Z,1.60
2023-04-02T01:42:51.509Z,1.80
2023-04-02T01:43:51.510Z,2.00
2023-04-02T01:44:51.485Z,1.70
2023-04-02T01:45:51.486Z,1.60
2023-04-02T01:46:51.562Z,1.50
2023-04-02T01:47:51.573Z,1.60
2023-04-02T01:48:51.477Z,1.90
2023-04-02T01:49:51.427Z,1.50
2023-04-02T01:50:51.432Z,1.60
2023-04-02T01:51:51.388Z,1.50
2023-04-02T01:52:51.386Z,1.40
2023-04-02T01:53:51.393Z,1.40
2023-04-02T01:54:51.371Z,1.30
2023-04-02T01:55:51.344Z,1.80
2023-04-02T01:56:51.389Z,1.50
2023-04-02T01:57:51.331Z,1.60
2023-04-02T01:58:51.331Z,1.50
2023-04-02T01:59:51.300Z,1.60
2023-04-02T02:00:51.313Z,1.60
2023-04-02T02:01:51.327Z,1.30
2023-04-02T02:02:51.311Z,1.70
2023-04-02T02:03:51.299Z,1.60
2023-04-02T02:04:51.257Z,1.80
2023-04-02T02:05:51.244Z,1.50
2023-04-02T02:06:51.246Z,1.80
2023-04-02T02:07:51.256Z,1.80
2023-04-02T02:08:51.255Z,1.60
2023-04-02T02:09:51.240Z,1.80
2023-04-02T02:10:51.198Z,1.80
2023-04-02T02:11:51.252Z,2.20
2023-04-02T02:12:51.178Z,1.90
2023-04-02T02:13:51.165Z,2.20
2023-04-02T02:14:51.196Z,1.70
2023-04-02T02:15:51.131Z,1.80
2023-04-02T02:16:51.128Z,1.70
2023-04-02T02:17:51.194Z,2.00
2023-04-02T02:18:51.101Z,2.10
2023-04-02T02:19:51.094Z,1.90
2023-04-02T02:20:51.119Z,1.90
2023-04-02T02:21:51.073Z,1.50
2023-04-02T02:22:51.085Z,1.80
2023-04-02T02:23:51.092Z,2.00
2023-04-02T02:24:51.068Z,1.90
2023-04-02T02:25:51.034Z,1.60
2023-04-02T02:26:51.083Z,1.80
2023-04-02T02:27:51.008Z,1.90
2023-04-02T02:28:51.023Z,1.80
2023-04-02T02:29:50.990Z,1.90
2023-04-02T02:30:51.004Z,1.80
2023-04-02T02:31:51.013Z,1.80
2023-04-02T02:32:51.009Z,2.00
2023-04-02T02:33:50.958Z,1.80
2023-04-02T02:34:50.937Z,2.00
2023-04-02T02:35:50.973Z,1.90
2023-04-02T02:36:50.951Z,1.80
2023-04-02T02:37:50.906Z,1.70
2023-04-02T02:38:50.882Z,2.10
2023-04-02T02:39:50.906Z,2.10
2023-04-02T02:40:50.893Z,2.20
2023-04-02T02:41:50.862Z,2.20
2023-04-02T02:42:50.910Z,2.20
2023-04-02T02:43:50.890Z,2.20
2023-04-02T02:44:50.857Z,1.90
2023-04-02T02:45:50.909Z,2.20
2023-04-02T02:46:50.831Z,2.00
2023-04-02T02:47:50.841Z,2.00
2023-04-02T02:48:50.902Z,2.00
2023-04-02T02:49:59.134Z,2.20
2023-04-02T02:50:51.446Z,2.10
2023-04-02T02:51:51.264Z,1.90
2023-04-02T02:52:51.122Z,2.00
2023-04-02T02:53:50.852Z,2.00
2023-04-02T02:54:50.806Z,2.20
2023-04-02T02:55:50.790Z,1.90
2023-04-02T02:56:50.764Z,2.10
2023-04-02T02:57:50.701Z,2.10
2023-04-02T02:58:50.698Z,2.40
2023-04-02T02:59:50.904Z,2.10
2023-04-02T03:00:50.760Z,1.90
2023-04-02T03:01:50.830Z,1.90
2023-04-02T03:02:50.809Z,1.80
2023-04-02T03:03:50.918Z,2.00
2023-04-02T03:04:50.636Z,1.80
2023-04-02T03:05:50.708Z,1.80
2023-04-02T03:06:50.679Z,2.00
2023-04-02T03:07:50.653Z,1.90
2023-04-02T03:08:50.678Z,2.30
2023-04-02T03:09:50.639Z,1.90
2023-04-02T03:10:50.592Z,2.30
2023-04-02T03:11:50.684Z,1.80
2023-04-02T03:12:50.576Z,1.80
2023-04-02T03:13:50.638Z,1.80
2023-04-02T03:14:50.590Z,2.00
2023-04-02T03:15:50.579Z,1.60
2023-04-02T03:16:50.608Z,2.00
2023-04-02T03:17:50.604Z,1.90
2023-04-02T03:18:50.503Z,2.10
2023-04-02T03:19:50.573Z,1.90
2023-04-02T03:20:50.505Z,2.20
2023-04-02T03:21:50.591Z,1.90
2023-04-02T03:22:50.478Z,2.10
2023-04-02T03:23:50.457Z,1.80
2023-04-02T03:24:50.444Z,1.70
2023-04-02T03:25:50.462Z,2.10
2023-04-02T03:26:50.483Z,1.80
2023-04-02T03:27:50.473Z,1.90
2023-04-02T03:28:50.400Z,2.10
2023-04-02T03:29:50.471Z,2.10
2023-04-02T03:30:50.389Z,2.20
2023-04-02T03:31:50.406Z,2.00
2023-04-02T03:32:50.400Z,1.90
2023-04-02T03:33:50.404Z,1.90
2023-04-02T03:34:50.358Z,2.30
2023-04-02T03:35:50.387Z,2.10
2023-04-02T03:36:50.424Z,1.90
2023-04-02T03:37:50.350Z,2.10
2023-04-02T03:38:50.328Z,1.60
2023-04-02T03:39:50.288Z,1.80
2023-04-02T03:40:50.311Z,1.70
2023-04-02T03:41:50.256Z,1.80
2023-04-02T03:42:50.275Z,1.90
2023-04-02T03:43:50.218Z,2.20
2023-04-02T03:44:50.231Z,2.20
2023-04-02T03:45:50.227Z,1.80
2023-04-02T03:46:50.304Z,2.10
2023-04-02T03:47:50.270Z,1.80
2023-04-02T03:48:50.197Z,2.10
2023-04-02T03:49:50.186Z,2.20
2023-04-02T03:50:50.214Z,2.20
2023-04-02T03:51:50.150Z,2.30
2023-04-02T03:52:50.230Z,2.20
2023-04-02T03:53:50.144Z,2.10
2023-04-02T03:54:54.066Z,2.00
2023-04-02T03:55:50.205Z,2.40
2023-04-02T03:56:50.212Z,2.00
2023-04-02T03:57:50.117Z,2.00
2023-04-02T03:58:50.096Z,1.90
2023-04-02T03:59:50.087Z,2.10
2023-04-02T04:00:50.121Z,2.10
2023-04-02T04:01:50.078Z,2.10
2023-04-02T04:02:50.065Z,2.20
2023-04-02T04:03:50.082Z,2.10
2023-04-02T04:04:50.045Z,2.50
2023-04-02T04:05:50.113Z,2.80
2023-04-02T04:06:50.007Z,2.30
2023-04-02T04:07:50.017Z,2.20
2023-04-02T04:08:50.014Z,2.20
2023-04-02T04:09:49.961Z,2.50
2023-04-02T04:10:50.049Z,2.10
2023-04-02T04:11:49.971Z,2.30
2023-04-02T04:12:49.965Z,2.80
2023-04-02T04:13:49.929Z,2.50
2023-04-02T04:14:49.995Z,2.50
2023-04-02T04:15:49.911Z,2.50
2023-04-02T04:16:49.956Z,2.70
2023-04-02T04:17:50.407Z,2.20
2023-04-02T04:18:49.862Z,2.40
2023-04-02T04:19:49.863Z,2.40
2023-04-02T04:20:49.834Z,2.30
2023-04-02T04:21:49.841Z,2.40
2023-04-02T04:22:49.885Z,2.40
2023-04-02T04:23:49.835Z,2.60
2023-04-02T04:24:49.793Z,2.80
2023-04-02T04:25:49.785Z,2.50
2023-04-02T04:26:49.833Z,2.60
2023-04-02T04:27:49.826Z,2.60
2023-04-02T04:28:49.761Z,2.60
2023-04-02T04:29:49.723Z,2.80
2023-04-02T04:30:49.732Z,2.70
2023-04-02T04:31:49.858Z,2.50
2023-04-02T04:32:49.745Z,2.70
2023-04-02T04:33:49.818Z,2.70
2023-04-02T04:34:49.721Z,2.70
2023-04-02T04:35:49.681Z,2.60
2023-04-02T04:36:49.666Z,2.80
2023-04-02T04:37:49.690Z,2.80
2023-04-02T04:38:49.677Z,3.30
2023-04-02T04:39:49.643Z,3.30
2023-04-02T04:40:49.644Z,2.80
2023-04-02T04:41:49.627Z,2.90
2023-04-02T04:42:49.605Z,3.20
2023-04-02T04:43:49.616Z,3.20
2023-04-02T04:44:49.602Z,2.90
2023-04-02T04:45:49.626Z,3.00
2023-04-02T04:46:49.553Z,2.90
2023-04-02T04:47:49.796Z,2.80
2023-04-02T04:48:49.611Z,3.10
2023-04-02T04:49:49.576Z,3.10
2023-04-02T04:50:49.713Z,2.90
2023-04-02T04:51:49.556Z,2.70
2023-04-02T04:52:49.606Z,2.80
2023-04-02T04:53:49.551Z,3.00
2023-04-02T04:54:49.496Z,2.80
2023-04-02T04:55:49.503Z,3.00
2023-04-02T04:56:49.567Z,2.90
2023-04-02T04:57:49.500Z,3.20
2023-04-02T04:58:49.445Z,3.20
2023-04-02T04:59:49.425Z,3.20
2023-04-02T05:00:50.115Z,3.20
2023-04-02T05:01:49.444Z,2.90
2023-04-02T05:02:49.470Z,2.60
2023-04-02T05:03:49.407Z,2.90
2023-04-02T05:04:49.506Z,2.80
2023-04-02T05:05:49.383Z,2.90
2023-04-02T05:06:49.370Z,2.80
2023-04-02T05:07:49.379Z,2.80
2023-04-02T05:08:49.390Z,3.00
2023-04-02T05:09:49.308Z,3.10
2023-04-02T05:10:49.389Z,2.90
2023-04-02T05:11:49.319Z,2.80
2023-04-02T05:12:49.350Z,2.80
2023-04-02T05:13:49.291Z,3.00
2023-04-02T05:14:49.300Z,2.60
2023-04-02T05:15:49.338Z,3.20
2023-04-02T05:16:49.234Z,3.10
2023-04-02T05:17:49.281Z,3.10
2023-04-02T05:18:49.231Z,3.40
2023-04-02T05:19:49.231Z,2.90
2023-04-02T05:20:49.340Z,2.90
2023-04-02T05:21:49.233Z,3.20
2023-04-02T05:22:49.199Z,2.90
2023-04-02T05:23:49.193Z,3.40
2023-04-02T05:24:49.150Z,2.60
2023-04-02T05:25:49.157Z,2.90
2023-04-02T05:26:49.166Z,2.70
2023-04-02T05:27:49.132Z,2.80
2023-04-02T05:28:49.118Z,2.70
2023-04-02T05:29:49.098Z,3.00
2023-04-02T05:30:49.215Z,3.20
2023-04-02T05:31:49.148Z,3.10
2023-04-02T05:32:49.122Z,2.90
2023-04-02T05:33:49.068Z,3.30
2023-04-02T05:34:49.047Z,3.00
2023-04-02T05:35:49.155Z,3.50
2023-04-02T05:36:49.079Z,3.10
2023-04-02T05:37:49.045Z,3.20
2023-04-02T05:38:49.045Z,3.00
2023-04-02T05:39:49.011Z,3.10
2023-04-02T05:40:49.059Z,3.70
2023-04-02T05:41:49.016Z,3.70
2023-04-02T05:42:49.006Z,3.10
2023-04-02T05:43:48.960Z,3.30
2023-04-02T05:44:49.033Z,3.40
2023-04-02T05:45:48.980Z,3.20
2023-04-02T05:46:49.020Z,3.30
2023-04-02T05:47:49.032Z,3.30
2023-04-02T05:48:48.931Z,3.40
2023-04-02T05:49:48.870Z,3.30
2023-04-02T05:50:48.935Z,3.60
2023-04-02T05:51:48.860Z,3.30
2023-04-02T05:52:48.889Z,3.50
2023-04-02T05:53:48.927Z,3.30
2023-04-02T05:54:48.920Z,3.70
2023-04-02T05:55:48.858Z,3.20
2023-04-02T05:56:48.850Z,3.40
2023-04-02T05:58:01.244Z,3.20
2023-04-02T05:58:49.850Z,3.10
2023-04-02T05:59:48.794Z,3.10
2023-04-02T06:00:48.878Z,3.10
2023-04-02T06:01:48.792Z,3.30
2023-04-02T06:02:48.845Z,3.10
2023-04-02T06:03:48.753Z,3.10
2023-04-02T06:04:48.769Z,3.30
2023-04-02T06:05:48.740Z,3.00
2023-04-02T06:06:48.688Z,2.80
2023-04-02T06:07:48.713Z,3.10
2023-04-02T06:08:48.676Z,3.10
2023-04-02T06:09:48.700Z,2.90
2023-04-02T06:10:48.699Z,2.70
2023-04-02T06:11:48.671Z,2.50
2023-04-02T06:12:48.649Z,3.00
2023-04-02T06:13:48.711Z,3.00
2023-04-02T06:14:48.639Z,2.70
2023-04-02T06:15:48.602Z,3.00
2023-04-02T06:16:48.656Z,3.40
2023-04-02T06:17:48.712Z,2.90
2023-04-02T06:18:48.609Z,3.30
2023-04-02T06:19:48.574Z,3.30
2023-04-02T06:20:48.666Z,2.90
2023-04-02T06:21:48.604Z,3.10
2023-04-02T06:22:48.527Z,2.80
2023-04-02T06:23:48.510Z,2.80
2023-04-02T06:24:48.522Z,2.70
2023-04-02T06:25:48.520Z,2.60
2023-04-02T06:26:48.549Z,2.30
2023-04-02T06:27:48.529Z,3.00
2023-04-02T06:28:48.562Z,2.70
2023-04-02T06:29:48.496Z,2.60
2023-04-02T06:30:48.535Z,2.40
2023-04-02T06:31:49.545Z,2.40
2023-04-02T06:32:48.835Z,2.20
2023-04-02T06:33:48.438Z,2.30
2023-04-02T06:34:48.397Z,2.10
2023-04-02T06:35:48.417Z,2.20
2023-04-02T06:36:48.452Z,2.10
2023-04-02T06:37:48.384Z,2.40
2023-04-02T06:38:48.377Z,2.20
2023-04-02T06:39:48.369Z,2.70
2023-04-02T06:40:48.352Z,2.40
2023-04-02T06:41:48.329Z,2.40
2023-04-02T06:42:48.362Z,2.30
2023-04-02T06:43:48.329Z,2.40
2023-04-02T06:44:48.306Z,2.60
2023-04-02T06:45:48.326Z,2.50
2023-04-02T06:46:49.927Z,2.70
2023-04-02T06:47:48.364Z,2.30
2023-04-02T06:48:48.301Z,2.10
2023-04-02T06:49:48.357Z,2.70
2023-04-02T06:50:48.244Z,2.50
2023-04-02T06:51:48.285Z,2.50
2023-04-02T06:52:48.247Z,2.20
2023-04-02T06:53:48.220Z,2.50
2023-04-02T06:54:48.322Z,2.20
2023-04-02T06:55:48.204Z,2.60
2023-04-02T06:56:48.273Z,2.60
2023-04-02T06:57:48.178Z,2.80
2023-04-02T06:58:48.210Z,2.40
2023-04-02T06:59:48.135Z,2.20
2023-04-02T07:00:48.204Z,2.30
2023-04-02T07:01:48.149Z,2.30
2023-04-02T07:02:48.167Z,2.50
2023-04-02T07:03:48.201Z,2.20
2023-04-02T07:04:48.157Z,2.30
2023-04-02T07:05:48.083Z,2.30
2023-04-02T07:06:48.126Z,2.20
2023-04-02T07:07:48.076Z,2.20
2023-04-02T07:08:48.061Z,2.10
2023-04-02T07:09:48.003Z,2.10
2023-04-02T07:10:48.079Z,2.20
2023-04-02T07:11:48.278Z,2.20
2023-04-02T07:12:48.005Z,2.30
2023-04-02T07:13:48.092Z,2.40
2023-04-02T07:14:48.016Z,2.20
2023-04-02T07:15:48.006Z,2.00
2023-04-02T07:16:48.004Z,2.20
2023-04-02T07:17:47.992Z,2.10
2023-04-02T07:18:47.955Z,2.10
2023-04-02T07:19:47.967Z,2.00
2023-04-02T07:20:47.942Z,2.00
2023-04-02T07:21:47.902Z,2.30
2023-04-02T07:22:47.877Z,2.10
2023-04-02T07:23:47.910Z,2.20
2023-04-02T07:24:47.914Z,2.20
2023-04-02T07:25:47.855Z,1.80
2023-04-02T07:26:47.884Z,2.00
2023-04-02T07:27:47.838Z,1.80
2023-04-02T07:28:47.810Z,2.00
2023-04-02T07:29:47.829Z,1.90
2023-04-02T07:30:47.806Z,1.80
2023-04-02T07:31:47.868Z,2.00
2023-04-02T07:32:47.911Z,2.00
2023-04-02T07:33:47.756Z,2.40
2023-04-02T07:34:47.812Z,2.10
2023-04-02T07:35:47.763Z,1.90
2023-04-02T07:36:47.742Z,2.30
2023-04-02T07:37:47.781Z,1.90
2023-04-02T07:38:47.735Z,2.10
2023-04-02T07:39:47.762Z,2.10
2023-04-02T07:40:47.826Z,2.00
2023-04-02T07:41:47.696Z,2.50
2023-04-02T07:42:47.688Z,2.10
2023-04-02T07:43:47.663Z,1.80
2023-04-02T07:44:47.666Z,1.90
2023-04-02T07:45:47.701Z,1.60
2023-04-02T07:46:47.681Z,1.70
2023-04-02T07:47:47.678Z,1.80
2023-04-02T07:48:47.629Z,1.70
2023-04-02T07:49:47.639Z,1.90
2023-04-02T07:50:47.572Z,1.90
2023-04-02T07:51:47.577Z,1.70
2023-04-02T07:52:47.669Z,2.00
2023-04-02T07:53:47.565Z,1.60
2023-04-02T07:54:47.580Z,2.00
2023-04-02T07:55:47.543Z,1.80
2023-04-02T07:56:47.571Z,2.10
2023-04-02T07:57:47.540Z,1.70
2023-04-02T07:58:47.550Z,1.90
2023-04-02T07:59:47.551Z,2.00
2023-04-02T08:00:47.512Z,1.70
2023-04-02T08:01:47.535Z,1.90
2023-04-02T08:02:47.468Z,1.80
2023-04-02T08:03:47.511Z,1.70
2023-04-02T08:04:47.440Z,1.80
2023-04-02T08:05:47.503Z,1.70
2023-04-02T08:06:47.443Z,1.90
2023-04-02T08:07:47.427Z,2.10
2023-04-02T08:08:47.397Z,2.00
2023-04-02T08:09:47.426Z,2.00
2023-04-02T08:10:47.356Z,1.80
2023-04-02T08:11:47.367Z,2.10
2023-04-02T08:12:47.372Z,2.00
2023-04-02T08:13:47.366Z,2.00
2023-04-02T08:14:47.422Z,1.90
2023-04-02T08:15:47.343Z,2.10
2023-04-02T08:16:47.320Z,2.40
2023-04-02T08:17:47.323Z,1.90
2023-04-02T08:18:47.287Z,1.70
2023-04-02T08:19:54.730Z,2.10
2023-04-02T08:20:48.302Z,1.70
2023-04-02T08:21:47.254Z,2.10
2023-04-02T08:22:47.262Z,1.90
2023-04-02T08:23:47.242Z,1.80
2023-04-02T08:24:47.229Z,2.10
2023-04-02T08:25:47.279Z,1.90
2023-04-02T08:26:47.206Z,2.00
2023-04-02T08:27:47.182Z,1.70
2023-04-02T08:28:47.182Z,1.90
2023-04-02T08:29:47.166Z,1.80
2023-04-02T08:30:47.231Z,1.70
2023-04-02T08:31:47.409Z,2.10
2023-04-02T08:32:47.227Z,1.60
2023-04-02T08:33:47.155Z,2.00
2023-04-02T08:34:47.118Z,1.90
2023-04-02T08:35:47.144Z,1.90
2023-04-02T08:36:47.077Z,1.90
2023-04-02T08:37:47.097Z,1.90
2023-04-02T08:38:47.132Z,1.70
2023-04-02T08:39:47.105Z,1.80
2023-04-02T08:40:47.056Z,1.60
2023-04-02T08:41:47.160Z,1.60
2023-04-02T08:42:47.161Z,1.50
2023-04-02T08:43:47.089Z,1.60
2023-04-02T08:44:47.068Z,1.90
2023-04-02T08:45:47.075Z,1.50
2023-04-02T08:46:47.014Z,1.50
2023-04-02T08:47:47.046Z,1.60
2023-04-02T08:48:46.961Z,1.20
2023-04-02T08:49:55.018Z,1.60
2023-04-02T08:50:47.097Z,1.60
2023-04-02T08:51:47.380Z,1.60
2023-04-02T08:52:47.089Z,2.00
2023-04-02T08:53:47.275Z,1.50
2023-04-02T08:54:46.886Z,1.80
2023-04-02T08:55:46.882Z,1.70
2023-04-02T08:56:46.935Z,1.40
2023-04-02T08:57:46.856Z,1.30
2023-04-02T08:58:46.862Z,1.30
2023-04-02T08:59:46.873Z,1.50
2023-04-02T09:00:46.827Z,1.40
2023-04-02T09:01:46.920Z,1.50
2023-04-02T09:02:46.886Z,1.70
2023-04-02T09:03:46.817Z,2.00
2023-04-02T09:04:46.832Z,1.80
2023-04-02T09:05:46.777Z,1.90
2023-04-02T09:06:46.812Z,1.90
2023-04-02T09:07:46.759Z,2.50
2023-04-02T09:08:46.742Z,1.90
2023-04-02T09:09:46.750Z,2.40
2023-04-02T09:10:46.724Z,2.10
2023-04-02T09:11:46.733Z,2.30
2023-04-02T09:12:46.749Z,2.10
2023-04-02T09:13:46.693Z,2.40
2023-04-02T09:14:46.738Z,2.10
2023-04-02T09:15:46.738Z,2.20
2023-04-02T09:16:46.639Z,1.90
2023-04-02T09:17:54.225Z,2.00
2023-04-02T09:18:47.719Z,1.70
2023-04-02T09:19:46.614Z,1.40
2023-04-02T09:20:46.614Z,1.50
2023-04-02T09:21:46.628Z,1.30
2023-04-02T09:22:46.642Z,1.50
2023-04-02T09:23:46.591Z,1.60
2023-04-02T09:24:46.645Z,1.30
2023-04-02T09:25:54.073Z,1.30
2023-04-02T09:26:47.554Z,1.10
2023-04-02T09:27:46.596Z,1.10
2023-04-02T09:28:46.513Z,1.40
2023-04-02T09:29:46.518Z,1.00
2023-04-02T09:30:46.542Z,1.30
2023-04-02T09:31:46.556Z,1.60
2023-04-02T09:32:46.602Z,1.40
2023-04-02T09:33:46.503Z,1.50
2023-04-02T09:34:46.466Z,1.70
2023-04-02T09:35:46.477Z,1.40
2023-04-02T09:36:46.442Z,1.40
2023-04-02T09:37:46.426Z,1.70
2023-04-02T09:38:46.428Z,1.60
2023-04-02T09:39:46.444Z,1.80
2023-04-02T09:40:46.402Z,1.40
2023-04-02T09:41:52.843Z,1.20
2023-04-02T09:42:47.460Z,1.20
2023-04-02T09:43:46.394Z,1.50
2023-04-02T09:44:46.381Z,1.30
2023-04-02T09:45:46.378Z,1.40
2023-04-02T09:46:46.358Z,1.20
2023-04-02T09:47:46.353Z,1.10
2023-04-02T09:48:46.379Z,1.20
2023-04-02T09:49:46.359Z,1.00
2023-04-02T09:50:46.313Z,1.20
2023-04-02T09:51:46.343Z,1.20
2023-04-02T09:52:46.271Z,1.10
2023-04-02T09:53:46.260Z,1.20
2023-04-02T09:54:46.279Z,1.10
2023-04-02T09:55:46.223Z,1.20
2023-04-02T09:56:46.270Z,1.00
2023-04-02T09:57:46.205Z,1.20
2023-04-02T09:58:46.235Z,1.20
2023-04-02T09:59:46.196Z,1.20
2023-04-02T10:00:46.511Z,1.40
2023-04-02T10:01:46.240Z,1.00
2023-04-02T10:02:46.201Z,1.00
2023-04-02T10:03:46.223Z,0.90
2023-04-02T10:04:46.223Z,1.10
2023-04-02T10:05:46.369Z,1.10
2023-04-02T10:06:46.138Z,1.10
2023-04-02T10:07:46.105Z,1.20
2023-04-02T10:08:46.113Z,1.00
2023-04-02T10:09:46.068Z,0.90
2023-04-02T10:10:46.096Z,1.10
2023-04-02T10:11:46.866Z,1.00
2023-04-02T10:12:46.057Z,1.10
2023-04-02T10:13:46.051Z,1.20
2023-04-02T10:14:46.071Z,1.10
2023-04-02T10:15:46.008Z,1.10
2023-04-02T10:16:46.085Z,1.30
2023-04-02T10:17:46.078Z,1.20
2023-04-02T10:18:45.986Z,1.50
2023-04-02T10:19:45.944Z,1.50
2023-04-02T10:20:51.235Z,1.40
2023-04-02T10:21:46.978Z,1.50
2023-04-02T10:22:45.954Z,1.30
2023-04-02T10:23:45.967Z,1.50
2023-04-02T10:24:45.909Z,1.80
2023-04-02T10:25:45.897Z,1.50
2023-04-02T10:26:45.946Z,2.10
2023-04-02T10:27:45.911Z,1.60
2023-04-02T10:28:45.876Z,1.80
2023-04-02T10:29:45.913Z,1.70
2023-04-02T10:30:45.911Z,1.60
2023-04-02T10:31:45.853Z,1.80
2023-04-02T10:32:45.919Z,1.90
2023-04-02T10:33:45.826Z,2.10
2023-04-02T10:34:45.823Z,2.10
2023-04-02T10:35:45.849Z,2.30
2023-04-02T10:36:45.813Z,2.40
2023-04-02T10:37:45.815Z,1.90
2023-04-02T10:38:45.841Z,2.40
2023-04-02T10:39:45.784Z,2.20
2023-04-02T10:40:45.767Z,2.10
2023-04-02T10:41:45.790Z,2.30
2023-04-02T10:42:45.767Z,1.70
2023-04-02T10:43:45.720Z,2.10
2023-04-02T10:44:45.908Z,2.00
2023-04-02T10:45:45.710Z,1.80
2023-04-02T10:46:45.756Z,2.20
2023-04-02T10:47:45.760Z,1.60
2023-04-02T10:48:45.753Z,1.70
2023-04-02T10:49:45.658Z,1.80
2023-04-02T10:50:45.663Z,1.90
2023-04-02T10:51:45.681Z,2.20
2023-04-02T10:52:45.707Z,2.30
2023-04-02T10:53:45.619Z,2.10
2023-04-02T10:54:45.600Z,2.20
2023-04-02T10:55:45.643Z,2.10
2023-04-02T10:56:51.012Z,2.10
2023-04-02T10:57:46.580Z,1.90
2023-04-02T10:58:45.592Z,2.00
2023-04-02T10:59:45.621Z,1.90
2023-04-02T11:00:45.538Z,1.80
2023-04-02T11:01:45.549Z,1.60
2023-04-02T11:02:45.586Z,1.40
2023-04-02T11:03:45.697Z,1.60
2023-04-02T11:04:45.503Z,1.50
2023-04-02T11:05:45.495Z,1.80
2023-04-02T11:06:45.468Z,1.50
2023-04-02T11:07:45.484Z,1.60
2023-04-02T11:08:45.476Z,1.90
2023-04-02T11:09:45.505Z,1.70
2023-04-02T11:10:45.430Z,1.70
2023-04-02T11:11:45.407Z,2.00
2023-04-02T11:12:45.452Z,1.90
2023-04-02T11:13:45.395Z,1.80
2023-04-02T11:14:45.379Z,1.80
2023-04-02T11:15:45.475Z,1.80
2023-04-02T11:16:45.390Z,1.60
2023-04-02T11:17:45.363Z,1.50
2023-04-02T11:18:45.389Z,2.00
2023-04-02T11:19:45.386Z,1.60
2023-04-02T11:20:45.337Z,1.70
2023-04-02T11:21:58.069Z,1.90
2023-04-02T11:22:46.292Z,2.00
2023-04-02T11:23:45.279Z,1.90
2023-04-02T11:24:45.372Z,1.60
2023-04-02T11:25:45.293Z,1.50
2023-04-02T11:26:45.272Z,1.50
2023-04-02T11:27:45.273Z,1.80
2023-04-02T11:28:45.263Z,1.30
2023-04-02T11:29:45.258Z,1.80
2023-04-02T11:30:45.269Z,1.50
2023-04-02T11:31:45.262Z,1.30
2023-04-02T11:32:45.249Z,1.40
2023-04-02T11:33:47.315Z,1.40
2023-04-02T11:34:45.232Z,1.60
2023-04-02T11:35:45.185Z,1.60
2023-04-02T11:36:45.162Z,1.20
2023-04-02T11:37:45.289Z,1.40
2023-04-02T11:38:45.203Z,1.40
2023-04-02T11:39:45.116Z,1.60
2023-04-02T11:40:45.204Z,1.20
2023-04-02T11:41:45.167Z,1.40
2023-04-02T11:42:45.094Z,1.40
2023-04-02T11:43:45.090Z,1.20
2023-04-02T11:44:45.164Z,1.40
2023-04-02T11:45:52.785Z,1.20
2023-04-02T11:46:46.117Z,1.30
2023-04-02T11:47:45.074Z,1.30
2023-04-02T11:48:45.055Z,1.60
2023-04-02T11:49:45.033Z,1.30
2023-04-02T11:50:45.013Z,1.60
2023-04-02T11:51:45.025Z,1.40
2023-04-02T11:52:45.072Z,1.40
2023-04-02T11:53:45.032Z,1.10
2023-04-02T11:54:44.978Z,1.10
2023-04-02T11:55:45.023Z,1.20
2023-04-02T11:56:44.953Z,1.20
2023-04-02T11:57:44.950Z,1.30
2023-04-02T11:58:44.936Z,1.20
2023-04-02T11:59:44.918Z,1.30
2023-04-02T12:00:44.900Z,1.20
2023-04-02T12:01:44.926Z,0.90
2023-04-02T12:02:44.982Z,1.30
2023-04-02T12:03:44.938Z,1.50
2023-04-02T12:04:44.862Z,1.50
2023-04-02T12:05:44.970Z,1.50
2023-04-02T12:06:44.860Z,1.50
2023-04-02T12:07:44.850Z,1.40
2023-04-02T12:08:56.627Z,1.20
2023-04-02T12:09:45.874Z,1.60
2023-04-02T12:10:44.799Z,1.50
2023-04-02T12:11:44.781Z,1.40
2023-04-02T12:12:44.756Z,1.50
2023-04-02T12:13:44.803Z,1.40
2023-04-02T12:14:44.737Z,1.30
2023-04-02T12:15:44.757Z,1.70
2023-04-02T12:16:44.729Z,1.50
2023-04-02T12:17:44.766Z,1.10
2023-04-02T12:18:44.728Z,1.60
2023-04-02T12:19:44.699Z,1.60
2023-04-02T12:20:44.695Z,1.80
2023-04-02T12:21:44.664Z,1.90
2023-04-02T12:22:44.652Z,1.50
2023-04-02T12:23:44.656Z,1.40
2023-04-02T12:24:44.653Z,1.60
2023-04-02T12:25:44.672Z,1.60
2023-04-02T12:26:44.688Z,1.40
2023-04-02T12:27:44.572Z,1.50
2023-04-02T12:28:44.714Z,1.60
2023-04-02T12:29:44.591Z,1.70
2023-04-02T12:30:44.596Z,1.50
2023-04-02T12:31:44.552Z,1.60
2023-04-02T12:32:44.893Z,1.50
2023-04-02T12:33:44.524Z,1.30
2023-04-02T12:34:44.565Z,1.30
2023-04-02T12:35:44.519Z,1.30
2023-04-02T12:36:44.548Z,1.10
2023-04-02T12:37:44.498Z,1.40
2023-04-02T12:38:44.589Z,1.40
2023-04-02T12:39:44.461Z,0.90
2023-04-02T12:40:44.438Z,1.40
2023-04-02T12:41:44.545Z,1.10
2023-04-02T12:42:44.429Z,1.00
2023-04-02T12:43:44.446Z,1.60
2023-04-02T12:44:44.467Z,1.10
2023-04-02T12:45:44.415Z,1.40
2023-04-02T12:46:44.425Z,1.20
2023-04-02T12:47:44.409Z,1.10
2023-04-02T12:48:44.361Z,1.20
2023-04-02T12:49:44.398Z,1.40
2023-04-02T12:50:44.440Z,1.20
2023-04-02T12:51:44.379Z,1.30
2023-04-02T12:52:44.336Z,1.20
2023-04-02T12:53:44.315Z,1.50
2023-04-02T12:54:44.378Z,1.40
2023-04-02T12:55:44.287Z,1.30
2023-04-02T12:56:44.301Z,1.30
2023-04-02T12:57:44.303Z,1.40
2023-04-02T12:58:44.271Z,1.40
2023-04-02T12:59:44.294Z,1.40
2023-04-02T13:00:44.244Z,1.50
2023-04-02T13:01:44.237Z,1.30
2023-04-02T13:02:44.248Z,1.40
2023-04-02T13:03:44.240Z,1.30
2023-04-02T13:04:44.227Z,1.30
2023-04-02T13:05:44.238Z,1.50
2023-04-02T13:06:44.181Z,1.40
2023-04-02T13:07:44.216Z,1.40
2023-04-02T13:08:44.206Z,1.10
2023-04-02T13:09:44.158Z,1.30
2023-04-02T13:10:44.154Z,1.20
2023-04-02T13:11:44.161Z,1.50
2023-04-02T13:12:44.256Z,1.30
2023-04-02T13:13:44.106Z,1.40
2023-04-02T13:14:44.108Z,1.40
2023-04-02T13:15:44.183Z,1.10
2023-04-02T13:16:44.087Z,1.20
2023-04-02T13:17:44.111Z,1.30
2023-04-02T13:18:44.093Z,1.10